sensor_id;sensor_type;location;lat;lon;timestamp;P1;durP1;ratioP1;P2;durP2;ratioP2
37379;SDS011;23252;-33.992;18.480;2023-03-14T00:02:11;25.90;;;3.55;;
37379;SDS011;23252;-33.992;18.480;2023-03-14T00:04:38;27.08;;;4.00;;
37379;SDS011;23252;-33.992;18.480;2023-03-14T00:07:04;21.20;;;3.20;;
37379;SDS011;23252;-33.992;18.480;2023-03-14T00:09:31;27.67;;;5.40;;
37379;SDS011;23252;-33.992;18.480;2023-03-14T00:11:57;25.10;;;4.40;;
37379;SDS011;23252;-33.992;18.480;2023-03-14T00:14:24;30.77;;;4.63;;
37379;SDS011;23252;-33.992;18.480;2023-03-14T00:16:50;26.75;;;4.10;;
37379;SDS011;23252;-33.992;18.480;2023-03-14T00:19:17;30.07;;;3.93;;
37379;SDS011;23252;-33.992;18.480;2023-03-14T00:21:43;26.83;;;3.37;;
37379;SDS011;23252;-33.992;18.480;2023-03-14T00:24:09;20.13;;;3.63;;
37379;SDS011;23252;-33.992;18.480;2023-03-14T00:26:36;30.17;;;4.00;;
37379;SDS011;23252;-33.992;18.480;2023-03-14T00:29:02;24.50;;;3.80;;
37379;SDS011;23252;-33.992;18.480;2023-03-14T00:31:29;30.53;;;4.13;;
37379;SDS011;23252;-33.992;18.480;2023-03-14T00:33:56;34.10;;;4.85;;
37379;SDS011;23252;-33.992;18.480;2023-03-14T00:36:22;24.73;;;3.53;;
37379;SDS011;23252;-33.992;18.480;2023-03-14T00:38:50;34.95;;;4.05;;
37379;SDS011;23252;-33.992;18.480;2023-03-14T00:41:18;31.10;;;5.57;;
37379;SDS011;23252;-33.992;18.480;2023-03-14T00:43:47;22.55;;;3.40;;
37379;SDS011;23252;-33.992;18.480;2023-03-14T00:46:14;23.30;;;3.88;;
37379;SDS011;23252;-33.992;18.480;2023-03-14T00:48:41;31.95;;;4.57;;
37379;SDS011;23252;-33.992;18.480;2023-03-14T00:51:09;37.22;;;4.25;;
37379;SDS011;23252;-33.992;18.480;2023-03-14T00:53:37;23.08;;;3.55;;
37379;SDS011;23252;-33.992;18.480;2023-03-14T00:56:05;33.20;;;5.07;;
37379;SDS011;23252;-33.992;18.480;2023-03-14T00:58:34;27.80;;;5.13;;
37379;SDS011;23252;-33.992;18.480;2023-03-14T01:01:13;28.67;;;4.22;;
37379;SDS011;23252;-33.992;18.480;2023-03-14T01:03:44;30.98;;;4.45;;
37379;SDS011;23252;-33.992;18.480;2023-03-14T01:06:13;33.58;;;5.72;;
37379;SDS011;23252;-33.992;18.480;2023-03-14T01:08:41;24.58;;;5.63;;
37379;SDS011;23252;-33.992;18.480;2023-03-14T01:16:05;36.85;;;4.38;;
37379;SDS011;23252;-33.992;18.480;2023-03-14T01:18:34;20.98;;;3.55;;
37379;SDS011;23252;-33.992;18.480;2023-03-14T01:21:01;29.27;;;4.00;;
37379;SDS011;23252;-33.992;18.480;2023-03-14T01:23:47;21.98;;;3.92;;
37379;SDS011;23252;-33.992;18.480;2023-03-14T01:28:44;29.45;;;3.42;;
37379;SDS011;23252;-33.992;18.480;2023-03-14T01:31:11;22.42;;;3.50;;
37379;SDS011;23252;-33.992;18.480;2023-03-14T01:33:38;30.77;;;3.50;;
37379;SDS011;23252;-33.992;18.480;2023-03-14T01:36:06;23.65;;;3.38;;
37379;SDS011;23252;-33.992;18.480;2023-03-14T01:38:34;28.85;;;3.55;;
37379;SDS011;23252;-33.992;18.480;2023-03-14T01:41:02;23.25;;;4.00;;
37379;SDS011;23252;-33.992;18.480;2023-03-14T01:43:29;25.83;;;3.50;;
37379;SDS011;23252;-33.992;18.480;2023-03-14T01:48:33;31.77;;;5.30;;
37379;SDS011;23252;-33.992;18.480;2023-03-14T01:51:06;26.42;;;3.70;;
37379;SDS011;23252;-33.992;18.480;2023-03-14T01:53:36;30.20;;;3.78;;
37379;SDS011;23252;-33.992;18.480;2023-03-14T01:56:04;24.95;;;3.55;;
37379;SDS011;23252;-33.992;18.480;2023-03-14T01:58:32;31.05;;;4.35;;
37379;SDS011;23252;-33.992;18.480;2023-03-14T02:01:02;29.73;;;4.57;;
37379;SDS011;23252;-33.992;18.480;2023-03-14T02:03:30;29.13;;;4.38;;
37379;SDS011;23252;-33.992;18.480;2023-03-14T02:05:59;29.67;;;3.95;;
37379;SDS011;23252;-33.992;18.480;2023-03-14T02:08:32;24.58;;;3.88;;
37379;SDS011;23252;-33.992;18.480;2023-03-14T02:11:00;28.92;;;4.65;;
37379;SDS011;23252;-33.992;18.480;2023-03-14T02:13:27;25.08;;;3.38;;
37379;SDS011;23252;-33.992;18.480;2023-03-14T02:15:54;22.70;;;3.40;;
37379;SDS011;23252;-33.992;18.480;2023-03-14T02:18:21;21.50;;;3.65;;
37379;SDS011;23252;-33.992;18.480;2023-03-14T02:23:32;21.38;;;3.97;;
37379;SDS011;23252;-33.992;18.480;2023-03-14T02:26:22;31.27;;;4.53;;
37379;SDS011;23252;-33.992;18.480;2023-03-14T02:29:07;27.23;;;3.80;;
37379;SDS011;23252;-33.992;18.480;2023-03-14T02:31:34;24.60;;;3.50;;
37379;SDS011;23252;-33.992;18.480;2023-03-14T02:34:00;31.33;;;3.95;;
37379;SDS011;23252;-33.992;18.480;2023-03-14T02:39:18;26.40;;;3.95;;
37379;SDS011;23252;-33.992;18.480;2023-03-14T02:41:45;25.98;;;3.30;;
37379;SDS011;23252;-33.992;18.480;2023-03-14T02:44:16;23.48;;;3.65;;
37379;SDS011;23252;-33.992;18.480;2023-03-14T02:46:45;31.10;;;4.22;;
37379;SDS011;23252;-33.992;18.480;2023-03-14T02:49:13;17.48;;;3.17;;
37379;SDS011;23252;-33.992;18.480;2023-03-14T02:51:40;27.25;;;3.50;;
37379;SDS011;23252;-33.992;18.480;2023-03-14T02:54:08;22.40;;;3.85;;
37379;SDS011;23252;-33.992;18.480;2023-03-14T02:56:35;38.78;;;4.68;;
37379;SDS011;23252;-33.992;18.480;2023-03-14T02:59:03;24.00;;;4.03;;
37379;SDS011;23252;-33.992;18.480;2023-03-14T03:01:30;28.50;;;3.97;;
37379;SDS011;23252;-33.992;18.480;2023-03-14T03:03:58;29.98;;;3.90;;
37379;SDS011;23252;-33.992;18.480;2023-03-14T03:06:25;20.85;;;3.63;;
37379;SDS011;23252;-33.992;18.480;2023-03-14T03:08:51;21.63;;;3.50;;
37379;SDS011;23252;-33.992;18.480;2023-03-14T03:11:18;24.52;;;3.30;;
37379;SDS011;23252;-33.992;18.480;2023-03-14T03:13:45;25.00;;;3.35;;
37379;SDS011;23252;-33.992;18.480;2023-03-14T03:16:11;30.30;;;3.47;;
37379;SDS011;23252;-33.992;18.480;2023-03-14T03:18:41;26.52;;;3.78;;
37379;SDS011;23252;-33.992;18.480;2023-03-14T03:21:07;27.30;;;2.88;;
37379;SDS011;23252;-33.992;18.480;2023-03-14T03:23:34;22.65;;;3.08;;
37379;SDS011;23252;-33.992;18.480;2023-03-14T03:26:01;21.20;;;3.40;;
37379;SDS011;23252;-33.992;18.480;2023-03-14T03:28:28;23.33;;;3.25;;
37379;SDS011;23252;-33.992;18.480;2023-03-14T03:30:54;26.70;;;3.47;;
37379;SDS011;23252;-33.992;18.480;2023-03-14T03:33:21;32.70;;;3.87;;
37379;SDS011;23252;-33.992;18.480;2023-03-14T03:35:49;24.48;;;3.72;;
37379;SDS011;23252;-33.992;18.480;2023-03-14T03:38:17;22.45;;;3.88;;
37379;SDS011;23252;-33.992;18.480;2023-03-14T03:40:45;22.30;;;3.65;;
37379;SDS011;23252;-33.992;18.480;2023-03-14T03:43:11;27.95;;;3.80;;
37379;SDS011;23252;-33.992;18.480;2023-03-14T03:45:38;23.70;;;3.80;;
37379;SDS011;23252;-33.992;18.480;2023-03-14T03:48:05;18.83;;;3.90;;
37379;SDS011;23252;-33.992;18.480;2023-03-14T03:50:32;24.63;;;4.80;;
37379;SDS011;23252;-33.992;18.480;2023-03-14T03:52:58;22.55;;;3.85;;
37379;SDS011;23252;-33.992;18.480;2023-03-14T03:55:25;21.63;;;3.80;;
37379;SDS011;23252;-33.992;18.480;2023-03-14T03:57:53;24.92;;;3.17;;
37379;SDS011;23252;-33.992;18.480;2023-03-14T04:00:20;21.75;;;3.50;;
37379;SDS011;23252;-33.992;18.480;2023-03-14T04:02:46;31.70;;;3.47;;
37379;SDS011;23252;-33.992;18.480;2023-03-14T04:05:13;22.67;;;2.93;;
37379;SDS011;23252;-33.992;18.480;2023-03-14T06:14:49;28.70;;;4.75;;
37379;SDS011;23252;-33.992;18.480;2023-03-14T06:17:16;31.77;;;5.43;;
37379;SDS011;23252;-33.992;18.480;2023-03-14T06:19:42;26.98;;;5.07;;
37379;SDS011;23252;-33.992;18.480;2023-03-14T06:22:09;24.23;;;5.23;;
37379;SDS011;23252;-33.992;18.480;2023-03-14T06:24:41;31.98;;;5.28;;
37379;SDS011;23252;-33.992;18.480;2023-03-14T06:27:07;28.58;;;4.07;;
37379;SDS011;23252;-33.992;18.480;2023-03-14T06:29:34;29.55;;;4.68;;
37379;SDS011;23252;-33.992;18.480;2023-03-14T06:32:00;31.53;;;5.13;;
37379;SDS011;23252;-33.992;18.480;2023-03-14T06:34:27;25.25;;;4.50;;
37379;SDS011;23252;-33.992;18.480;2023-03-14T06:36:54;26.55;;;5.28;;
37379;SDS011;23252;-33.992;18.480;2023-03-14T06:39:20;29.50;;;4.60;;
37379;SDS011;23252;-33.992;18.480;2023-03-14T06:41:47;21.92;;;4.35;;
37379;SDS011;23252;-33.992;18.480;2023-03-14T06:44:13;25.30;;;3.50;;
37379;SDS011;23252;-33.992;18.480;2023-03-14T06:46:40;26.00;;;3.72;;
37379;SDS011;23252;-33.992;18.480;2023-03-14T06:49:06;22.48;;;4.05;;
37379;SDS011;23252;-33.992;18.480;2023-03-14T06:51:33;26.90;;;4.45;;
37379;SDS011;23252;-33.992;18.480;2023-03-14T06:53:59;24.08;;;4.85;;
37379;SDS011;23252;-33.992;18.480;2023-03-14T06:56:26;27.02;;;4.25;;
37379;SDS011;23252;-33.992;18.480;2023-03-14T06:58:52;23.38;;;4.15;;
37379;SDS011;23252;-33.992;18.480;2023-03-14T07:01:23;27.92;;;5.15;;
37379;SDS011;23252;-33.992;18.480;2023-03-14T07:03:51;25.77;;;4.82;;
37379;SDS011;23252;-33.992;18.480;2023-03-14T07:06:17;28.27;;;3.97;;
37379;SDS011;23252;-33.992;18.480;2023-03-14T07:08:44;30.88;;;4.93;;
37379;SDS011;23252;-33.992;18.480;2023-03-14T07:11:11;35.17;;;7.28;;
37379;SDS011;23252;-33.992;18.480;2023-03-14T07:13:38;30.17;;;4.15;;
37379;SDS011;23252;-33.992;18.480;2023-03-14T07:16:05;31.35;;;5.20;;
37379;SDS011;23252;-33.992;18.480;2023-03-14T07:18:32;20.55;;;4.35;;
37379;SDS011;23252;-33.992;18.480;2023-03-14T07:20:59;23.80;;;4.28;;
37379;SDS011;23252;-33.992;18.480;2023-03-14T07:23:28;29.10;;;4.68;;
37379;SDS011;23252;-33.992;18.480;2023-03-14T07:25:56;22.20;;;4.18;;
37379;SDS011;23252;-33.992;18.480;2023-03-14T07:28:22;25.88;;;4.45;;
37379;SDS011;23252;-33.992;18.480;2023-03-14T07:30:49;21.30;;;4.70;;
37379;SDS011;23252;-33.992;18.480;2023-03-14T07:33:15;21.08;;;3.92;;
37379;SDS011;23252;-33.992;18.480;2023-03-14T07:35:42;25.70;;;4.03;;
37379;SDS011;23252;-33.992;18.480;2023-03-14T07:38:08;21.38;;;4.90;;
37379;SDS011;23252;-33.992;18.480;2023-03-14T07:40:35;22.98;;;3.55;;
37379;SDS011;23252;-33.992;18.480;2023-03-14T07:43:01;18.45;;;3.67;;
37379;SDS011;23252;-33.992;18.480;2023-03-14T07:45:28;23.08;;;3.75;;
37379;SDS011;23252;-33.992;18.480;2023-03-14T07:47:54;24.23;;;4.97;;
37379;SDS011;23252;-33.992;18.480;2023-03-14T07:50:23;21.02;;;3.55;;
37379;SDS011;23252;-33.992;18.480;2023-03-14T07:52:50;25.08;;;3.67;;
37379;SDS011;23252;-33.992;18.480;2023-03-14T07:55:17;21.70;;;4.35;;
37379;SDS011;23252;-33.992;18.480;2023-03-14T07:57:44;30.30;;;4.50;;
37379;SDS011;23252;-33.992;18.480;2023-03-14T08:00:10;26.83;;;4.63;;
37379;SDS011;23252;-33.992;18.480;2023-03-14T08:02:39;23.20;;;3.90;;
37379;SDS011;23252;-33.992;18.480;2023-03-14T08:07:32;26.88;;;4.68;;
37379;SDS011;23252;-33.992;18.480;2023-03-14T08:09:59;27.30;;;4.70;;
37379;SDS011;23252;-33.992;18.480;2023-03-14T08:12:26;21.50;;;3.83;;
37379;SDS011;23252;-33.992;18.480;2023-03-14T08:14:52;24.10;;;4.37;;
37379;SDS011;23252;-33.992;18.480;2023-03-14T08:17:19;20.42;;;4.28;;
37379;SDS011;23252;-33.992;18.480;2023-03-14T08:19:45;22.80;;;3.78;;
37379;SDS011;23252;-33.992;18.480;2023-03-14T08:22:12;23.17;;;4.63;;
37379;SDS011;23252;-33.992;18.480;2023-03-14T08:24:38;21.67;;;4.25;;
37379;SDS011;23252;-33.992;18.480;2023-03-14T08:27:06;28.48;;;4.13;;
37379;SDS011;23252;-33.992;18.480;2023-03-14T08:29:32;25.80;;;4.70;;
37379;SDS011;23252;-33.992;18.480;2023-03-14T08:31:59;21.92;;;4.18;;
37379;SDS011;23252;-33.992;18.480;2023-03-14T08:34:25;22.03;;;3.63;;
37379;SDS011;23252;-33.992;18.480;2023-03-14T08:36:52;29.63;;;4.95;;
37379;SDS011;23252;-33.992;18.480;2023-03-14T08:39:20;23.10;;;4.38;;
37379;SDS011;23252;-33.992;18.480;2023-03-14T08:41:47;18.20;;;4.13;;
37379;SDS011;23252;-33.992;18.480;2023-03-14T08:44:15;24.55;;;4.18;;
37379;SDS011;23252;-33.992;18.480;2023-03-14T08:46:42;23.90;;;4.20;;
37379;SDS011;23252;-33.992;18.480;2023-03-14T08:49:09;24.15;;;4.05;;
37379;SDS011;23252;-33.992;18.480;2023-03-14T08:51:35;29.73;;;4.05;;
37379;SDS011;23252;-33.992;18.480;2023-03-14T08:54:02;29.77;;;4.93;;
37379;SDS011;23252;-33.992;18.480;2023-03-14T08:56:29;26.60;;;4.63;;
37379;SDS011;23252;-33.992;18.480;2023-03-14T08:58:55;29.48;;;4.68;;
37379;SDS011;23252;-33.992;18.480;2023-03-14T09:01:21;24.67;;;4.72;;
37379;SDS011;23252;-33.992;18.480;2023-03-14T09:03:50;25.48;;;4.05;;
37379;SDS011;23252;-33.992;18.480;2023-03-14T09:06:16;28.85;;;4.85;;
37379;SDS011;23252;-33.992;18.480;2023-03-14T09:08:43;18.13;;;3.75;;
37379;SDS011;23252;-33.992;18.480;2023-03-14T09:11:11;21.92;;;4.35;;
37379;SDS011;23252;-33.992;18.480;2023-03-14T09:13:38;23.95;;;4.13;;
37379;SDS011;23252;-33.992;18.480;2023-03-14T09:16:05;25.95;;;4.57;;
37379;SDS011;23252;-33.992;18.480;2023-03-14T09:20:47;14.48;;;3.08;;
37379;SDS011;23252;-33.992;18.480;2023-03-14T09:23:15;28.17;;;4.05;;
37379;SDS011;23252;-33.992;18.480;2023-03-14T09:25:41;18.40;;;3.85;;
37379;SDS011;23252;-33.992;18.480;2023-03-14T09:28:08;17.70;;;4.25;;
37379;SDS011;23252;-33.992;18.480;2023-03-14T09:30:34;19.35;;;3.75;;
37379;SDS011;23252;-33.992;18.480;2023-03-14T09:33:01;17.60;;;4.43;;
37379;SDS011;23252;-33.992;18.480;2023-03-14T09:35:27;16.05;;;4.05;;
37379;SDS011;23252;-33.992;18.480;2023-03-14T09:37:54;17.63;;;4.00;;
37379;SDS011;23252;-33.992;18.480;2023-03-14T09:40:20;12.13;;;2.97;;
37379;SDS011;23252;-33.992;18.480;2023-03-14T09:42:52;14.00;;;3.22;;
37379;SDS011;23252;-33.992;18.480;2023-03-14T09:45:25;9.65;;;2.97;;
37379;SDS011;23252;-33.992;18.480;2023-03-14T09:48:03;14.75;;;3.00;;
37379;SDS011;23252;-33.992;18.480;2023-03-14T09:50:33;13.23;;;2.83;;
37379;SDS011;23252;-33.992;18.480;2023-03-14T09:53:09;15.25;;;2.83;;
37379;SDS011;23252;-33.992;18.480;2023-03-14T09:55:42;11.05;;;2.33;;
37379;SDS011;23252;-33.992;18.480;2023-03-14T09:58:14;12.73;;;2.60;;
37379;SDS011;23252;-33.992;18.480;2023-03-14T10:00:44;12.77;;;2.33;;
37379;SDS011;23252;-33.992;18.480;2023-03-14T10:06:00;14.97;;;3.47;;
37379;SDS011;23252;-33.992;18.480;2023-03-14T10:08:27;15.10;;;3.00;;
37379;SDS011;23252;-33.992;18.480;2023-03-14T10:10:54;14.32;;;3.50;;
37379;SDS011;23252;-33.992;18.480;2023-03-14T10:13:22;15.13;;;3.35;;
37379;SDS011;23252;-33.992;18.480;2023-03-14T10:15:52;19.15;;;3.83;;
37379;SDS011;23252;-33.992;18.480;2023-03-14T10:18:29;16.70;;;2.92;;
37379;SDS011;23252;-33.992;18.480;2023-03-14T10:21:06;13.60;;;3.13;;
37379;SDS011;23252;-33.992;18.480;2023-03-14T10:23:53;12.20;;;2.85;;
37379;SDS011;23252;-33.992;18.480;2023-03-14T10:26:24;17.52;;;3.20;;
37379;SDS011;23252;-33.992;18.480;2023-03-14T10:28:53;11.45;;;2.90;;
37379;SDS011;23252;-33.992;18.480;2023-03-14T10:31:28;14.00;;;3.07;;
37379;SDS011;23252;-33.992;18.480;2023-03-14T10:34:28;13.82;;;3.00;;
37379;SDS011;23252;-33.992;18.480;2023-03-14T10:37:07;12.23;;;2.63;;
37379;SDS011;23252;-33.992;18.480;2023-03-14T10:39:50;13.80;;;2.92;;
37379;SDS011;23252;-33.992;18.480;2023-03-14T10:42:25;13.88;;;2.78;;
37379;SDS011;23252;-33.992;18.480;2023-03-14T10:45:15;13.48;;;2.88;;
37379;SDS011;23252;-33.992;18.480;2023-03-14T10:48:40;15.57;;;2.80;;
37379;SDS011;23252;-33.992;18.480;2023-03-14T10:56:24;12.45;;;2.85;;
37379;SDS011;23252;-33.992;18.480;2023-03-14T10:59:00;11.88;;;2.40;;
37379;SDS011;23252;-33.992;18.480;2023-03-14T11:11:53;18.20;;;2.60;;
37379;SDS011;23252;-33.992;18.480;2023-03-14T11:14:29;11.48;;;2.83;;
37379;SDS011;23252;-33.992;18.480;2023-03-14T11:17:14;11.95;;;2.80;;
37379;SDS011;23252;-33.992;18.480;2023-03-14T11:19:53;11.73;;;2.97;;
37379;SDS011;23252;-33.992;18.480;2023-03-14T11:22:53;15.43;;;3.13;;
37379;SDS011;23252;-33.992;18.480;2023-03-14T11:25:32;15.30;;;3.80;;
37379;SDS011;23252;-33.992;18.480;2023-03-14T11:28:18;17.77;;;3.35;;
37379;SDS011;23252;-33.992;18.480;2023-03-14T11:37:04;17.80;;;3.38;;
37379;SDS011;23252;-33.992;18.480;2023-03-14T11:40:01;15.75;;;4.40;;
37379;SDS011;23252;-33.992;18.480;2023-03-14T11:42:38;20.70;;;3.67;;
37379;SDS011;23252;-33.992;18.480;2023-03-14T11:45:18;21.55;;;3.88;;
37379;SDS011;23252;-33.992;18.480;2023-03-14T11:48:05;17.25;;;3.95;;
37379;SDS011;23252;-33.992;18.480;2023-03-14T11:50:43;21.40;;;3.42;;
37379;SDS011;23252;-33.992;18.480;2023-03-14T11:53:19;29.70;;;4.68;;
37379;SDS011;23252;-33.992;18.480;2023-03-14T11:56:09;28.98;;;4.22;;
37379;SDS011;23252;-33.992;18.480;2023-03-14T11:58:45;29.67;;;4.90;;
37379;SDS011;23252;-33.992;18.480;2023-03-14T12:01:40;26.88;;;4.65;;
37379;SDS011;23252;-33.992;18.480;2023-03-14T12:04:22;20.83;;;4.13;;
37379;SDS011;23252;-33.992;18.480;2023-03-14T12:07:23;22.00;;;3.85;;
37379;SDS011;23252;-33.992;18.480;2023-03-14T12:10:04;34.33;;;4.47;;
37379;SDS011;23252;-33.992;18.480;2023-03-14T12:12:31;24.92;;;4.22;;
37379;SDS011;23252;-33.992;18.480;2023-03-14T12:14:59;18.77;;;3.75;;
37379;SDS011;23252;-33.992;18.480;2023-03-14T12:17:38;27.25;;;4.53;;
37379;SDS011;23252;-33.992;18.480;2023-03-14T12:22:47;26.30;;;4.57;;
37379;SDS011;23252;-33.992;18.480;2023-03-14T12:25:20;21.48;;;3.58;;
37379;SDS011;23252;-33.992;18.480;2023-03-14T12:27:49;28.42;;;4.50;;
37379;SDS011;23252;-33.992;18.480;2023-03-14T12:30:40;26.75;;;5.13;;
37379;SDS011;23252;-33.992;18.480;2023-03-14T12:38:32;26.05;;;4.80;;
37379;SDS011;23252;-33.992;18.480;2023-03-14T12:41:20;31.05;;;4.32;;
37379;SDS011;23252;-33.992;18.480;2023-03-14T12:46:58;22.83;;;3.50;;
37379;SDS011;23252;-33.992;18.480;2023-03-14T12:49:29;25.75;;;4.75;;
37379;SDS011;23252;-33.992;18.480;2023-03-14T12:52:00;23.70;;;4.20;;
37379;SDS011;23252;-33.992;18.480;2023-03-14T12:54:42;31.13;;;4.95;;
37379;SDS011;23252;-33.992;18.480;2023-03-14T12:57:26;26.42;;;4.55;;
37379;SDS011;23252;-33.992;18.480;2023-03-14T13:02:42;36.17;;;6.03;;
37379;SDS011;23252;-33.992;18.480;2023-03-14T13:10:23;33.17;;;5.20;;
37379;SDS011;23252;-33.992;18.480;2023-03-14T13:15:48;28.83;;;5.60;;
37379;SDS011;23252;-33.992;18.480;2023-03-14T13:18:38;32.63;;;5.18;;
37379;SDS011;23252;-33.992;18.480;2023-03-14T13:21:16;25.77;;;5.25;;
37379;SDS011;23252;-33.992;18.480;2023-03-14T13:23:58;28.98;;;5.07;;
37379;SDS011;23252;-33.992;18.480;2023-03-14T13:26:37;36.25;;;7.07;;
37379;SDS011;23252;-33.992;18.480;2023-03-14T13:29:09;42.15;;;6.00;;
37379;SDS011;23252;-33.992;18.480;2023-03-14T13:31:35;36.55;;;5.88;;
37379;SDS011;23252;-33.992;18.480;2023-03-14T13:34:06;33.42;;;6.10;;
37379;SDS011;23252;-33.992;18.480;2023-03-14T13:36:36;32.03;;;5.55;;
37379;SDS011;23252;-33.992;18.480;2023-03-14T13:39:02;30.60;;;4.97;;
37379;SDS011;23252;-33.992;18.480;2023-03-14T13:41:37;35.35;;;5.22;;
37379;SDS011;23252;-33.992;18.480;2023-03-14T13:44:05;34.10;;;6.22;;
37379;SDS011;23252;-33.992;18.480;2023-03-14T13:46:34;38.15;;;5.70;;
37379;SDS011;23252;-33.992;18.480;2023-03-14T13:49:03;28.90;;;4.78;;
37379;SDS011;23252;-33.992;18.480;2023-03-14T13:51:32;36.03;;;5.85;;
37379;SDS011;23252;-33.992;18.480;2023-03-14T13:56:27;32.58;;;5.28;;
37379;SDS011;23252;-33.992;18.480;2023-03-14T13:58:55;27.05;;;5.32;;
37379;SDS011;23252;-33.992;18.480;2023-03-14T14:01:26;35.30;;;5.70;;
37379;SDS011;23252;-33.992;18.480;2023-03-14T14:03:58;29.05;;;4.97;;
37379;SDS011;23252;-33.992;18.480;2023-03-14T14:06:50;36.47;;;5.90;;
37379;SDS011;23252;-33.992;18.480;2023-03-14T14:09:23;30.38;;;6.05;;
37379;SDS011;23252;-33.992;18.480;2023-03-14T14:14:19;32.05;;;5.82;;
37379;SDS011;23252;-33.992;18.480;2023-03-14T14:16:53;43.03;;;5.88;;
37379;SDS011;23252;-33.992;18.480;2023-03-14T14:19:21;36.85;;;6.25;;
37379;SDS011;23252;-33.992;18.480;2023-03-14T14:21:49;42.20;;;5.95;;
37379;SDS011;23252;-33.992;18.480;2023-03-14T14:24:16;45.22;;;7.38;;
37379;SDS011;23252;-33.992;18.480;2023-03-14T14:26:52;42.28;;;6.38;;
37379;SDS011;23252;-33.992;18.480;2023-03-14T14:29:27;34.72;;;6.10;;
37379;SDS011;23252;-33.992;18.480;2023-03-14T14:37:19;37.53;;;5.75;;
37379;SDS011;23252;-33.992;18.480;2023-03-14T14:42:44;39.55;;;7.00;;
37379;SDS011;23252;-33.992;18.480;2023-03-14T14:45:18;38.25;;;6.18;;
37379;SDS011;23252;-33.992;18.480;2023-03-14T14:53:22;48.25;;;6.45;;
37379;SDS011;23252;-33.992;18.480;2023-03-14T14:58:43;42.22;;;7.18;;
37379;SDS011;23252;-33.992;18.480;2023-03-14T15:03:48;42.45;;;6.75;;
37379;SDS011;23252;-33.992;18.480;2023-03-14T15:06:17;38.63;;;6.22;;
37379;SDS011;23252;-33.992;18.480;2023-03-14T15:08:45;33.55;;;6.82;;
37379;SDS011;23252;-33.992;18.480;2023-03-14T15:11:17;37.97;;;5.28;;
37379;SDS011;23252;-33.992;18.480;2023-03-14T15:13:49;34.95;;;4.90;;
37379;SDS011;23252;-33.992;18.480;2023-03-14T15:16:17;39.00;;;6.28;;
37379;SDS011;23252;-33.992;18.480;2023-03-14T15:18:47;38.85;;;5.30;;
37379;SDS011;23252;-33.992;18.480;2023-03-14T15:21:20;30.25;;;5.93;;
37379;SDS011;23252;-33.992;18.480;2023-03-14T15:23:47;41.80;;;5.80;;
37379;SDS011;23252;-33.992;18.480;2023-03-14T15:26:15;46.80;;;5.88;;
37379;SDS011;23252;-33.992;18.480;2023-03-14T15:28:46;34.58;;;6.28;;
37379;SDS011;23252;-33.992;18.480;2023-03-14T15:31:14;38.55;;;5.72;;
37379;SDS011;23252;-33.992;18.480;2023-03-14T15:33:43;37.00;;;6.18;;
37379;SDS011;23252;-33.992;18.480;2023-03-14T15:36:27;31.65;;;5.65;;
37379;SDS011;23252;-33.992;18.480;2023-03-14T15:38:59;42.83;;;5.70;;
37379;SDS011;23252;-33.992;18.480;2023-03-14T15:41:26;37.95;;;6.55;;
37379;SDS011;23252;-33.992;18.480;2023-03-14T15:46:19;39.63;;;5.53;;
37379;SDS011;23252;-33.992;18.480;2023-03-14T15:48:47;42.63;;;6.50;;
37379;SDS011;23252;-33.992;18.480;2023-03-14T15:51:15;39.60;;;7.32;;
37379;SDS011;23252;-33.992;18.480;2023-03-14T15:53:42;34.10;;;6.53;;
37379;SDS011;23252;-33.992;18.480;2023-03-14T15:56:15;37.88;;;6.78;;
37379;SDS011;23252;-33.992;18.480;2023-03-14T15:58:43;30.55;;;5.53;;
37379;SDS011;23252;-33.992;18.480;2023-03-14T16:01:12;32.95;;;5.82;;
37379;SDS011;23252;-33.992;18.480;2023-03-14T16:03:41;36.90;;;7.15;;
37379;SDS011;23252;-33.992;18.480;2023-03-14T16:06:10;45.67;;;6.75;;
37379;SDS011;23252;-33.992;18.480;2023-03-14T16:08:37;37.53;;;6.95;;
37379;SDS011;23252;-33.992;18.480;2023-03-14T16:11:04;36.45;;;6.68;;
37379;SDS011;23252;-33.992;18.480;2023-03-14T16:13:30;34.38;;;6.18;;
37379;SDS011;23252;-33.992;18.480;2023-03-14T16:15:58;39.33;;;6.65;;
37379;SDS011;23252;-33.992;18.480;2023-03-14T16:18:30;36.20;;;5.85;;
37379;SDS011;23252;-33.992;18.480;2023-03-14T16:21:03;38.55;;;6.25;;
37379;SDS011;23252;-33.992;18.480;2023-03-14T16:23:32;33.53;;;5.57;;
37379;SDS011;23252;-33.992;18.480;2023-03-14T16:26:02;47.50;;;7.03;;
37379;SDS011;23252;-33.992;18.480;2023-03-14T16:28:30;41.15;;;5.93;;
37379;SDS011;23252;-33.992;18.480;2023-03-14T16:31:00;33.83;;;5.75;;
37379;SDS011;23252;-33.992;18.480;2023-03-14T16:33:37;37.50;;;5.93;;
37379;SDS011;23252;-33.992;18.480;2023-03-14T16:36:05;37.50;;;6.63;;
37379;SDS011;23252;-33.992;18.480;2023-03-14T16:38:33;39.92;;;6.38;;
37379;SDS011;23252;-33.992;18.480;2023-03-14T16:41:02;42.70;;;6.45;;
37379;SDS011;23252;-33.992;18.480;2023-03-14T16:43:41;39.05;;;7.05;;
37379;SDS011;23252;-33.992;18.480;2023-03-14T16:48:40;49.83;;;7.85;;
37379;SDS011;23252;-33.992;18.480;2023-03-14T16:51:07;36.90;;;6.15;;
37379;SDS011;23252;-33.992;18.480;2023-03-14T16:53:34;40.90;;;5.47;;
37379;SDS011;23252;-33.992;18.480;2023-03-14T16:58:50;44.42;;;7.70;;
37379;SDS011;23252;-33.992;18.480;2023-03-14T17:01:17;44.00;;;7.22;;
37379;SDS011;23252;-33.992;18.480;2023-03-14T17:03:44;65.32;;;8.30;;
37379;SDS011;23252;-33.992;18.480;2023-03-14T17:06:13;46.50;;;8.35;;
37379;SDS011;23252;-33.992;18.480;2023-03-14T17:08:42;50.75;;;8.80;;
37379;SDS011;23252;-33.992;18.480;2023-03-14T17:11:09;52.72;;;8.63;;
37379;SDS011;23252;-33.992;18.480;2023-03-14T17:13:36;47.40;;;7.55;;
37379;SDS011;23252;-33.992;18.480;2023-03-14T17:16:03;40.97;;;7.20;;
37379;SDS011;23252;-33.992;18.480;2023-03-14T17:18:30;50.63;;;7.63;;
37379;SDS011;23252;-33.992;18.480;2023-03-14T17:20:57;53.50;;;8.55;;
37379;SDS011;23252;-33.992;18.480;2023-03-14T17:23:24;52.30;;;9.15;;
37379;SDS011;23252;-33.992;18.480;2023-03-14T17:25:53;55.35;;;8.05;;
37379;SDS011;23252;-33.992;18.480;2023-03-14T17:28:20;51.38;;;7.78;;
37379;SDS011;23252;-33.992;18.480;2023-03-14T17:30:48;55.90;;;8.68;;
37379;SDS011;23252;-33.992;18.480;2023-03-14T17:33:15;51.13;;;7.53;;
37379;SDS011;23252;-33.992;18.480;2023-03-14T17:35:42;48.33;;;8.40;;
37379;SDS011;23252;-33.992;18.480;2023-03-14T17:38:09;48.58;;;8.20;;
37379;SDS011;23252;-33.992;18.480;2023-03-14T17:40:35;47.47;;;7.47;;
37379;SDS011;23252;-33.992;18.480;2023-03-14T17:43:02;55.17;;;8.20;;
37379;SDS011;23252;-33.992;18.480;2023-03-14T17:45:29;56.97;;;8.43;;
37379;SDS011;23252;-33.992;18.480;2023-03-14T17:47:55;37.40;;;6.97;;
37379;SDS011;23252;-33.992;18.480;2023-03-14T17:50:22;40.17;;;6.13;;
37379;SDS011;23252;-33.992;18.480;2023-03-14T17:52:48;49.08;;;8.18;;
37379;SDS011;23252;-33.992;18.480;2023-03-14T17:55:15;54.50;;;7.78;;
37379;SDS011;23252;-33.992;18.480;2023-03-14T17:57:41;54.75;;;8.65;;
37379;SDS011;23252;-33.992;18.480;2023-03-14T18:00:09;42.20;;;7.07;;
37379;SDS011;23252;-33.992;18.480;2023-03-14T18:02:39;53.30;;;7.43;;
37379;SDS011;23252;-33.992;18.480;2023-03-14T18:05:06;42.10;;;7.57;;
37379;SDS011;23252;-33.992;18.480;2023-03-14T18:07:35;43.63;;;6.60;;
37379;SDS011;23252;-33.992;18.480;2023-03-14T18:10:03;48.38;;;8.15;;
37379;SDS011;23252;-33.992;18.480;2023-03-14T18:12:31;41.92;;;6.90;;